Time;durP1;ratioP1;P1;durP2;ratioP2;P2;SDS_P1;SDS_P2;PMS_P1;PMS_P2;Temp;Humidity;BMP_temperature;BMP_pressure;BME280_temperature;BME280_humidity;BME280_pressure;Samples;Min_cycle;Max_cycle;Signal;HPM_P1;HPM_P2
2021/08/09 00:01:30;;;;;;;9.77;3.83;;;;;;;;;;5117879;27;20089;-69
2021/08/09 00:03:56;;;;;;;18.33;3.60;;;;;;;;;;5109108;27;20046;-69
2021/08/09 00:06:23;;;;;;;9.88;3.42;;;;;;;;;;5111210;27;20051;-69
2021/08/09 00:08:50;;;;;;;9.40;3.60;;;;;;;;;;5108853;27;20352;-69
2021/08/09 00:11:16;;;;;;;11.20;4.15;;;;;;;;;;5116374;27;20494;-68
2021/08/09 00:13:42;;;;;;;15.23;3.80;;;;;;;;;;5104675;27;20399;-68
2021/08/09 00:16:08;;;;;;;10.27;3.88;;;;;;;;;;5115294;27;20080;-68
2021/08/09 00:18:34;;;;;;;14.40;3.95;;;;;;;;;;5110906;27;20039;-68
2021/08/09 00:21:00;;;;;;;12.05;4.28;;;;;;;;;;5116680;27;20039;-68
2021/08/09 00:23:27;;;;;;;16.55;3.95;;;;;;;;;;5105957;27;20192;-68
2021/08/09 00:25:53;;;;;;;15.07;3.97;;;;;;;;;;5115440;27;20040;-68
2021/08/09 00:28:19;;;;;;;10.85;4.07;;;;;;;;;;5112894;27;20043;-68
2021/08/09 00:30:45;;;;;;;8.57;3.63;;;;;;;;;;5111852;27;20110;-68
2021/08/09 00:33:11;;;;;;;12.35;3.42;;;;;;;;;;5113412;27;20042;-68
2021/08/09 00:35:37;;;;;;;13.85;3.92;;;;;;;;;;5106860;27;20149;-69
2021/08/09 00:38:03;;;;;;;11.50;3.47;;;;;;;;;;5116937;27;20104;-69
2021/08/09 00:40:30;;;;;;;10.23;3.63;;;;;;;;;;5107482;27;20483;-69
2021/08/09 00:42:56;;;;;;;10.27;3.92;;;;;;;;;;5113759;27;20028;-69
2021/08/09 00:45:22;;;;;;;13.63;4.20;;;;;;;;;;5110628;27;20048;-69
2021/08/09 00:47:49;;;;;;;10.57;4.10;;;;;;;;;;5112364;27;20036;-69
2021/08/09 00:50:15;;;;;;;12.45;3.92;;;;;;;;;;5108134;27;20503;-69
2021/08/09 00:52:42;;;;;;;12.10;3.53;;;;;;;;;;5112490;27;20031;-69
2021/08/09 00:55:09;;;;;;;12.93;4.00;;;;;;;;;;5090540;27;20134;-69
2021/08/09 00:57:35;;;;;;;8.32;3.53;;;;;;;;;;5113052;27;20050;-69
2021/08/09 01:00:02;;;;;;;11.80;3.70;;;;;;;;;;5107344;27;20042;-70
2021/08/09 01:02:28;;;;;;;11.27;3.33;;;;;;;;;;5113353;27;20036;-69
2021/08/09 01:04:54;;;;;;;13.02;3.90;;;;;;;;;;5106133;27;20074;-69
2021/08/09 01:07:21;;;;;;;12.18;3.17;;;;;;;;;;5109578;27;20145;-69
2021/08/09 01:09:54;;;;;;;13.75;3.70;;;;;;;;;;5110312;27;20046;-69
2021/08/09 01:12:40;;;;;;;13.43;3.72;;;;;;;;;;5113154;27;20070;-68
2021/08/09 01:15:16;;;;;;;15.02;3.70;;;;;;;;;;5110849;27;20398;-68
2021/08/09 01:17:44;;;;;;;13.68;3.42;;;;;;;;;;5097811;28;20510;-68
2021/08/09 01:20:28;;;;;;;12.15;3.63;;;;;;;;;;5106764;27;20031;-68
2021/08/09 01:22:55;;;;;;;;;;;;;;;;;;5113383;27;20067;-68
2021/08/09 01:25:24;;;;;;;13.18;3.55;;;;;;;;;;5109540;27;20006;-69
2021/08/09 01:27:51;;;;;;;14.13;3.72;;;;;;;;;;5108165;27;20541;-69
2021/08/09 01:30:17;;;;;;;12.05;3.70;;;;;;;;;;5111467;28;20475;-68
2021/08/09 01:32:45;;;;;;;10.10;3.28;;;;;;;;;;5110390;27;20027;-69
2021/08/09 01:35:12;;;;;;;9.25;3.35;;;;;;;;;;5112750;28;20039;-69
2021/08/09 01:37:40;;;;;;;14.70;3.97;;;;;;;;;;5102892;28;20039;-69
2021/08/09 01:40:07;;;;;;;15.55;3.70;;;;;;;;;;5114087;28;20453;-69
2021/08/09 01:42:34;;;;;;;14.02;3.80;;;;;;;;;;5108009;28;20518;-69
2021/08/09 01:45:01;;;;;;;15.23;3.50;;;;;;;;;;5103200;28;20055;-68
2021/08/09 01:47:27;;;;;;;11.43;3.90;;;;;;;;;;5104953;28;20081;-69
2021/08/09 01:49:54;;;;;;;14.00;3.88;;;;;;;;;;5116360;28;20479;-69
2021/08/09 01:52:20;;;;;;;13.85;3.42;;;;;;;;;;5105655;28;20031;-69
2021/08/09 01:54:48;;;;;;;14.90;3.97;;;;;;;;;;5109354;28;20046;-69
2021/08/09 01:57:14;;;;;;;14.15;3.33;;;;;;;;;;5107183;28;20557;-69
2021/08/09 01:59:41;;;;;;;13.40;3.95;;;;;;;;;;5116074;28;20071;-69
2021/08/09 02:02:07;;;;;;;11.02;3.67;;;;;;;;;;5110080;28;20104;-69
2021/08/09 02:04:33;;;;;;;19.80;4.00;;;;;;;;;;5105261;28;20032;-69
2021/08/09 02:07:00;;;;;;;15.07;3.85;;;;;;;;;;5107374;28;20510;-68
2021/08/09 02:09:26;;;;;;;14.60;4.07;;;;;;;;;;5117134;28;20039;-68
2021/08/09 02:11:58;;;;;;;14.52;3.55;;;;;;;;;;5110514;28;20061;-68
2021/08/09 02:14:26;;;;;;;13.38;3.95;;;;;;;;;;5103906;28;20047;-68
2021/08/09 02:17:06;;;;;;;11.95;3.60;;;;;;;;;;5112659;28;20372;-68
2021/08/09 02:19:54;;;;;;;10.93;3.70;;;;;;;;;;5107554;28;20047;-68
2021/08/09 02:22:32;;;;;;;12.32;3.92;;;;;;;;;;5109684;28;20048;-68
2021/08/09 02:25:03;;;;;;;10.27;4.22;;;;;;;;;;5107143;28;20180;-68
2021/08/09 02:27:49;;;;;;;15.73;3.85;;;;;;;;;;5110524;28;20391;-69
2021/08/09 02:30:17;;;;;;;12.52;4.13;;;;;;;;;;5108082;28;20043;-68
2021/08/09 02:32:45;;;;;;;11.70;4.20;;;;;;;;;;5115221;28;20031;-68
2021/08/09 02:35:17;;;;;;;14.50;4.05;;;;;;;;;;5103963;28;20063;-69
2021/08/09 02:37:44;;;;;;;15.05;4.80;;;;;;;;;;5103833;28;20035;-68
2021/08/09 02:40:11;;;;;;;18.98;4.57;;;;;;;;;;5106597;28;20061;-68
2021/08/09 02:42:37;;;;;;;14.85;4.50;;;;;;;;;;5114212;28;20040;-68
2021/08/09 02:45:04;;;;;;;15.63;4.32;;;;;;;;;;5103979;28;20059;-68
2021/08/09 02:47:33;;;;;;;12.98;4.40;;;;;;;;;;5115208;28;20103;-68
2021/08/09 02:50:01;;;;;;;9.27;3.90;;;;;;;;;;5109416;28;20043;-68
2021/08/09 02:52:28;;;;;;;16.70;5.30;;;;;;;;;;5098746;28;20067;-68
2021/08/09 02:54:54;;;;;;;17.35;4.53;;;;;;;;;;5108289;28;20288;-68
2021/08/09 02:57:23;;;;;;;12.63;4.32;;;;;;;;;;5084336;28;20036;-69
2021/08/09 02:59:50;;;;;;;14.32;4.57;;;;;;;;;;5110143;28;20039;-68
2021/08/09 03:02:17;;;;;;;17.15;4.95;;;;;;;;;;5109827;28;20126;-68
2021/08/09 03:04:44;;;;;;;10.70;4.70;;;;;;;;;;5045170;28;1098008;-68
2021/08/09 03:07:10;;;;;;;14.85;4.57;;;;;;;;;;5117330;27;20039;-68
2021/08/09 03:09:37;;;;;;;12.70;4.68;;;;;;;;;;5113149;27;20416;-68
2021/08/09 03:12:06;;;;;;;16.38;4.60;;;;;;;;;;5113153;27;20479;-69
2021/08/09 03:14:32;;;;;;;14.13;4.53;;;;;;;;;;5110505;27;20090;-69
2021/08/09 03:17:00;;;;;;;12.63;4.78;;;;;;;;;;5117472;27;20377;-69
2021/08/09 03:19:27;;;;;;;16.58;5.15;;;;;;;;;;5119508;27;20495;-69
2021/08/09 03:21:54;;;;;;;17.92;5.05;;;;;;;;;;5106507;27;20033;-69
2021/08/09 03:24:21;;;;;;;17.88;4.55;;;;;;;;;;5113174;27;20032;-69
2021/08/09 03:26:47;;;;;;;20.52;5.30;;;;;;;;;;5112495;27;20129;-69
2021/08/09 03:29:14;;;;;;;19.35;4.82;;;;;;;;;;5115774;27;20406;-69
2021/08/09 03:31:40;;;;;;;20.27;4.85;;;;;;;;;;5107780;27;20117;-69
2021/08/09 03:34:06;;;;;;;16.60;4.80;;;;;;;;;;5119976;27;20429;-69
2021/08/09 03:36:32;;;;;;;17.35;5.20;;;;;;;;;;5111858;27;20338;-69
2021/08/09 03:38:58;;;;;;;18.38;5.20;;;;;;;;;;5115776;27;20043;-68
2021/08/09 03:41:25;;;;;;;16.10;4.25;;;;;;;;;;5110892;27;20465;-68
2021/08/09 03:43:51;;;;;;;12.57;4.63;;;;;;;;;;5118187;27;20071;-68
2021/08/09 03:46:17;;;;;;;19.25;5.53;;;;;;;;;;5112226;27;20085;-68
2021/08/09 03:48:43;;;;;;;16.15;4.53;;;;;;;;;;5105921;27;20439;-68
2021/08/09 03:51:10;;;;;;;22.20;5.25;;;;;;;;;;5114376;27;20411;-68
2021/08/09 03:53:36;;;;;;;12.70;4.38;;;;;;;;;;5116206;27;20431;-68
2021/08/09 03:56:02;;;;;;;18.23;5.28;;;;;;;;;;5111437;27;20039;-68
2021/08/09 03:58:29;;;;;;;11.45;4.30;;;;;;;;;;5109360;27;20416;-68
2021/08/09 04:00:55;;;;;;;16.60;5.20;;;;;;;;;;5081193;28;20300;-68
2021/08/09 04:03:21;;;;;;;12.98;4.50;;;;;;;;;;5107383;27;20040;-68
2021/08/09 04:05:47;;;;;;;16.08;4.82;;;;;;;;;;5111068;27;20453;-69
2021/08/09 04:08:13;;;;;;;15.63;4.72;;;;;;;;;;5107376;27;20043;-68
2021/08/09 04:10:39;;;;;;;15.73;5.07;;;;;;;;;;5115266;27;20045;-68
2021/08/09 04:13:05;;;;;;;19.65;4.75;;;;;;;;;;5109279;27;20099;-68
2021/08/09 04:15:31;;;;;;;18.38;4.95;;;;;;;;;;5091621;27;20059;-68
2021/08/09 04:17:58;;;;;;;16.05;4.28;;;;;;;;;;5109398;27;20032;-69
2021/08/09 04:20:24;;;;;;;20.25;5.55;;;;;;;;;;5120256;27;20042;-68
2021/08/09 04:22:50;;;;;;;11.77;4.25;;;;;;;;;;5105225;27;20036;-68
2021/08/09 04:25:16;;;;;;;16.48;4.97;;;;;;;;;;5113228;27;20081;-68
2021/08/09 04:27:42;;;;;;;14.25;4.90;;;;;;;;;;5111075;27;20083;-68
2021/08/09 04:30:09;;;;;;;15.45;4.78;;;;;;;;;;5120017;27;20114;-68
2021/08/09 04:32:42;;;;;;;14.48;5.00;;;;;;;;;;5107366;27;20043;-69
2021/08/09 04:35:08;;;;;;;15.18;4.22;;;;;;;;;;5116265;27;20036;-69
2021/08/09 04:37:35;;;;;;;14.65;6.00;;;;;;;;;;5116831;27;20054;-69
2021/08/09 04:40:01;;;;;;;14.75;4.88;;;;;;;;;;5106881;27;20048;-69
2021/08/09 04:42:27;;;;;;;15.98;4.82;;;;;;;;;;5112735;27;20035;-69
2021/08/09 04:44:54;;;;;;;18.33;4.60;;;;;;;;;;5106142;27;20111;-68
2021/08/09 04:47:20;;;;;;;16.60;4.85;;;;;;;;;;5118678;27;20450;-68
2021/08/09 04:49:46;;;;;;;14.90;6.05;;;;;;;;;;5106948;27;20043;-68
2021/08/09 04:52:13;;;;;;;13.43;4.68;;;;;;;;;;5112556;27;20032;-68
2021/08/09 04:54:39;;;;;;;15.65;4.65;;;;;;;;;;5104770;27;20045;-69
2021/08/09 04:57:05;;;;;;;15.48;4.20;;;;;;;;;;5113885;27;20039;-69
2021/08/09 04:59:31;;;;;;;16.35;4.68;;;;;;;;;;5103385;27;20120;-69
2021/08/09 05:01:58;;;;;;;14.13;4.63;;;;;;;;;;5113136;27;20039;-68
2021/08/09 05:04:24;;;;;;;12.43;4.50;;;;;;;;;;5111692;27;20047;-69
2021/08/09 05:06:50;;;;;;;15.18;5.00;;;;;;;;;;5113992;27;20051;-69
2021/08/09 05:09:16;;;;;;;17.42;4.63;;;;;;;;;;5105630;27;20449;-68
2021/08/09 05:11:43;;;;;;;13.75;4.45;;;;;;;;;;5117421;27;20044;-68
2021/08/09 05:14:11;;;;;;;16.52;4.65;;;;;;;;;;5110655;27;20038;-68
2021/08/09 05:16:39;;;;;;;11.45;4.53;;;;;;;;;;5115078;27;20126;-68
2021/08/09 05:19:06;;;;;;;15.10;4.72;;;;;;;;;;5111917;27;20589;-68
2021/08/09 05:21:34;;;;;;;14.80;4.78;;;;;;;;;;5113597;27;20031;-69
2021/08/09 05:24:01;;;;;;;11.88;4.05;;;;;;;;;;5116079;27;20040;-69
2021/08/09 05:26:28;;;;;;;16.15;4.28;;;;;;;;;;5088248;28;20384;-69
2021/08/09 05:28:54;;;;;;;13.88;4.30;;;;;;;;;;5118285;27;20031;-68
2021/08/09 05:31:24;;;;;;;16.63;4.38;;;;;;;;;;5105076;27;20448;-68
2021/08/09 05:33:50;;;;;;;16.10;4.80;;;;;;;;;;5113882;27;20067;-68
2021/08/09 05:36:16;;;;;;;15.77;4.30;;;;;;;;;;5108980;28;20037;-68
2021/08/09 05:38:43;;;;;;;13.50;4.28;;;;;;;;;;5113160;28;20040;-68
2021/08/09 05:41:09;;;;;;;15.32;3.97;;;;;;;;;;5110839;28;20043;-69
2021/08/09 05:43:35;;;;;;;15.70;4.57;;;;;;;;;;5110375;28;20039;-69
2021/08/09 05:46:01;;;;;;;13.18;4.07;;;;;;;;;;5104659;28;20544;-69
2021/08/09 05:48:27;;;;;;;15.63;4.32;;;;;;;;;;5100176;28;20043;-69
2021/08/09 05:50:53;;;;;;;13.88;4.07;;;;;;;;;;5103290;28;20046;-69
2021/08/09 05:53:20;;;;;;;16.13;4.80;;;;;;;;;;5112483;28;20035;-69
2021/08/09 05:55:47;;;;;;;16.05;4.50;;;;;;;;;;5109521;28;20471;-69
2021/08/09 05:58:13;;;;;;;13.48;4.97;;;;;;;;;;5117907;28;20096;-69
2021/08/09 06:00:39;;;;;;;13.63;3.97;;;;;;;;;;5107345;28;20487;-69
2021/08/09 06:03:05;;;;;;;17.40;4.45;;;;;;;;;;5101016;28;20039;-69
2021/08/09 06:05:31;;;;;;;14.07;3.95;;;;;;;;;;5114804;28;20059;-69
2021/08/09 06:07:57;;;;;;;12.35;3.95;;;;;;;;;;5109337;28;20035;-69
2021/08/09 06:10:24;;;;;;;16.40;4.32;;;;;;;;;;5109962;28;20039;-69
2021/08/09 06:12:50;;;;;;;13.80;3.92;;;;;;;;;;5102476;28;20383;-69
2021/08/09 06:15:16;;;;;;;11.38;4.25;;;;;;;;;;5117066;28;20432;-69
2021/08/09 06:17:42;;;;;;;14.63;3.70;;;;;;;;;;5107250;28;20096;-69
2021/08/09 06:20:08;;;;;;;13.02;4.13;;;;;;;;;;5115077;27;20510;-69
2021/08/09 06:22:35;;;;;;;15.45;4.20;;;;;;;;;;5111476;27;20564;-69
2021/08/09 06:25:01;;;;;;;12.45;3.47;;;;;;;;;;5120065;27;20040;-69
2021/08/09 06:27:27;;;;;;;12.63;4.18;;;;;;;;;;5105772;27;20036;-69
2021/08/09 06:29:53;;;;;;;11.10;3.78;;;;;;;;;;5113784;27;20081;-69
2021/08/09 06:32:19;;;;;;;12.82;3.85;;;;;;;;;;5113141;27;20069;-69
2021/08/09 06:34:45;;;;;;;11.43;4.30;;;;;;;;;;5118348;27;20031;-69
2021/08/09 06:37:11;;;;;;;11.85;3.70;;;;;;;;;;5108174;27;20106;-69
2021/08/09 06:39:38;;;;;;;18.25;5.10;;;;;;;;;;5110379;27;20213;-69
2021/08/09 06:42:05;;;;;;;17.85;4.03;;;;;;;;;;5120881;27;20046;-69
2021/08/09 06:44:32;;;;;;;17.13;4.10;;;;;;;;;;5110232;27;20100;-69
2021/08/09 06:46:59;;;;;;;13.85;4.10;;;;;;;;;;5113008;27;20032;-69
2021/08/09 06:49:25;;;;;;;12.68;3.90;;;;;;;;;;5113003;27;20051;-69
2021/08/09 06:51:51;;;;;;;18.10;4.38;;;;;;;;;;5117319;27;20039;-69
2021/08/09 06:54:24;;;;;;;14.45;4.32;;;;;;;;;;5104532;27;20154;-69
2021/08/09 06:56:50;;;;;;;12.77;3.25;;;;;;;;;;5114767;27;20515;-69
2021/08/09 06:59:16;;;;;;;15.13;3.85;;;;;;;;;;5109093;27;20039;-69
2021/08/09 07:01:42;;;;;;;12.52;3.25;;;;;;;;;;5116467;27;20031;-69
2021/08/09 07:04:08;;;;;;;10.88;3.38;;;;;;;;;;5108224;27;20510;-69
2021/08/09 07:06:34;;;;;;;11.43;3.55;;;;;;;;;;5114439;27;20124;-69
2021/08/09 07:09:03;;;;;;;15.45;3.63;;;;;;;;;;5112122;27;20055;-69
2021/08/09 07:11:29;;;;;;;14.18;3.42;;;;;;;;;;5115724;27;20140;-69
2021/08/09 07:13:55;;;;;;;14.55;3.50;;;;;;;;;;5076603;27;20487;-69
2021/08/09 07:16:24;;;;;;;12.13;3.15;;;;;;;;;;5114178;27;20552;-69
2021/08/09 07:18:50;;;;;;;12.38;3.20;;;;;;;;;;5116131;27;20096;-69
2021/08/09 07:21:16;;;;;;;13.05;3.70;;;;;;;;;;5106254;27;20039;-69
2021/08/09 07:23:43;;;;;;;13.57;4.00;;;;;;;;;;5113134;27;20039;-69
2021/08/09 07:26:09;;;;;;;15.13;3.40;;;;;;;;;;5117838;27;20038;-69
2021/08/09 07:28:36;;;;;;;12.82;3.50;;;;;;;;;;5117037;27;20063;-69
2021/08/09 07:31:02;;;;;;;16.58;3.67;;;;;;;;;;5084597;27;20514;-69
2021/08/09 07:33:29;;;;;;;11.98;3.35;;;;;;;;;;5114362;27;20038;-69
2021/08/09 07:35:55;;;;;;;13.57;3.00;;;;;;;;;;5111593;27;20039;-69
2021/08/09 07:38:21;;;;;;;12.95;3.05;;;;;;;;;;5114365;27;20031;-69
2021/08/09 07:40:47;;;;;;;14.52;3.08;;;;;;;;;;5103446;27;20457;-69
2021/08/09 07:43:14;;;;;;;11.75;3.20;;;;;;;;;;5117215;27;20360;-69
2021/08/09 07:45:40;;;;;;;18.13;3.88;;;;;;;;;;5109439;27;20078;-69
2021/08/09 07:48:06;;;;;;;14.40;3.63;;;;;;;;;;5113544;27;20046;-69
2021/08/09 07:50:32;;;;;;;13.25;3.28;;;;;;;;;;5107142;27;20498;-69
2021/08/09 07:52:58;;;;;;;15.68;3.42;;;;;;;;;;5118903;27;20091;-69
2021/08/09 07:55:25;;;;;;;11.95;2.90;;;;;;;;;;5108088;27;20048;-69
2021/08/09 07:57:52;;;;;;;19.23;3.50;;;;;;;;;;5116067;27;20347;-69
2021/08/09 08:00:18;;;;;;;12.07;3.00;;;;;;;;;;5111623;27;20036;-69
2021/08/09 08:02:44;;;;;;;14.65;3.53;;;;;;;;;;5115067;27;20075;-69
2021/08/09 08:05:11;;;;;;;13.48;3.20;;;;;;;;;;5108846;27;20032;-69
2021/08/09 08:07:37;;;;;;;15.65;3.30;;;;;;;;;;5109915;27;20538;-69
2021/08/09 08:10:03;;;;;;;15.68;3.40;;;;;;;;;;5098611;27;20043;-69
2021/08/09 08:12:30;;;;;;;11.93;3.03;;;;;;;;;;5109585;27;20411;-69
2021/08/09 08:14:56;;;;;;;12.15;3.42;;;;;;;;;;5114553;27;20071;-68
2021/08/09 08:17:23;;;;;;;13.80;2.97;;;;;;;;;;5106999;27;20088;-69
2021/08/09 08:19:50;;;;;;;11.73;3.22;;;;;;;;;;5116674;27;20472;-69
2021/08/09 08:22:16;;;;;;;10.35;2.88;;;;;;;;;;5103518;27;20583;-69
2021/08/09 08:24:43;;;;;;;12.68;3.33;;;;;;;;;;5114030;27;20395;-69
2021/08/09 08:27:09;;;;;;;14.25;3.08;;;;;;;;;;5113233;27;20028;-69
2021/08/09 08:29:35;;;;;;;14.32;3.42;;;;;;;;;;5116537;27;20333;-70
2021/08/09 08:32:01;;;;;;;13.60;3.33;;;;;;;;;;5104849;27;20396;-70
2021/08/09 08:34:28;;;;;;;11.18;3.10;;;;;;;;;;5108008;27;20038;-70
2021/08/09 08:36:54;;;;;;;11.90;3.22;;;;;;;;;;5115649;27;20087;-70
2021/08/09 08:39:20;;;;;;;13.38;2.83;;;;;;;;;;5114986;27;20436;-70
2021/08/09 08:41:46;;;;;;;14.27;3.25;;;;;;;;;;5113188;27;20577;-70
2021/08/09 08:44:19;;;;;;;11.88;2.70;;;;;;;;;;5105874;27;20031;-70
2021/08/09 08:46:46;;;;;;;17.23;3.63;;;;;;;;;;5111652;27;20046;-70
2021/08/09 08:49:15;;;;;;;10.45;2.65;;;;;;;;;;5103242;27;20407;-71
2021/08/09 08:51:42;;;;;;;7.25;2.42;;;;;;;;;;5113300;27;20478;-71
2021/08/09 08:54:09;;;;;;;12.40;2.42;;;;;;;;;;5108156;27;20402;-71
2021/08/09 08:56:39;;;;;;;11.88;2.65;;;;;;;;;;5101674;27;20483;-71
2021/08/09 08:59:13;;;;;;;10.45;2.67;;;;;;;;;;5100582;27;20043;-71
2021/08/09 09:01:40;;;;;;;9.02;2.28;;;;;;;;;;5114399;27;20031;-71
2021/08/09 09:04:39;;;;;;;14.23;2.50;;;;;;;;;;5105719;27;20391;-71
2021/08/09 09:07:08;;;;;;;9.70;2.30;;;;;;;;;;5066604;27;20050;-72
2021/08/09 09:09:37;;;;;;;10.80;2.42;;;;;;;;;;5109768;27;20047;-72
2021/08/09 09:12:16;;;;;;;13.85;2.00;;;;;;;;;;5109245;27;20048;-72
2021/08/09 09:14:43;;;;;;;9.88;1.60;;;;;;;;;;5105719;27;20062;-74
2021/08/09 09:17:09;;;;;;;5.80;1.70;;;;;;;;;;5116996;27;20041;-74
2021/08/09 09:19:38;;;;;;;11.45;2.30;;;;;;;;;;5106318;27;20050;-74
2021/08/09 09:22:07;;;;;;;8.57;2.03;;;;;;;;;;5106013;27;20079;-74
2021/08/09 09:24:34;;;;;;;6.70;1.77;;;;;;;;;;5108350;27;20043;-74
2021/08/09 09:27:02;;;;;;;9.07;2.10;;;;;;;;;;5113719;27;20035;-74
2021/08/09 09:29:34;;;;;;;6.70;1.23;;;;;;;;;;5106317;27;20043;-74
2021/08/09 09:32:12;;;;;;;7.82;1.33;;;;;;;;;;5093920;27;20108;-74
2021/08/09 09:34:44;;;;;;;7.63;1.58;;;;;;;;;;5110039;27;20024;-74
2021/08/09 09:37:21;;;;;;;6.38;1.38;;;;;;;;;;5115238;27;20375;-75
2021/08/09 09:39:47;;;;;;;6.38;1.60;;;;;;;;;;5109525;28;20091;-75
2021/08/09 09:42:15;;;;;;;5.43;1.50;;;;;;;;;;5109547;28;20045;-75
2021/08/09 09:44:41;;;;;;;5.90;1.40;;;;;;;;;;5091914;28;20035;-76
2021/08/09 09:47:25;;;;;;;4.22;0.98;;;;;;;;;;5086515;28;20046;-76
2021/08/09 09:50:00;;;;;;;3.67;1.00;;;;;;;;;;5104766;28;20110;-75
2021/08/09 09:52:37;;;;;;;5.10;1.40;;;;;;;;;;5115809;28;20398;-75
2021/08/09 09:55:07;;;;;;;6.10;1.20;;;;;;;;;;5108840;28;20035;-75
2021/08/09 09:57:35;;;;;;;7.22;1.52;;;;;;;;;;5120910;27;20054;-75
2021/08/09 10:00:01;;;;;;;5.05;1.25;;;;;;;;;;5118401;27;20031;-75
2021/08/09 10:02:27;;;;;;;5.43;0.98;;;;;;;;;;5107598;27;20406;-75
2021/08/09 10:04:54;;;;;;;4.35;1.10;;;;;;;;;;5100338;27;20063;-75
2021/08/09 10:07:23;;;;;;;6.28;1.50;;;;;;;;;;5114485;27;20063;-75
2021/08/09 10:09:50;;;;;;;5.50;1.08;;;;;;;;;;5086385;27;20075;-75
2021/08/09 10:12:18;;;;;;;5.13;1.20;;;;;;;;;;5091342;28;20052;-75
2021/08/09 10:14:45;;;;;;;3.97;0.90;;;;;;;;;;5121059;27;20101;-75
2021/08/09 10:17:12;;;;;;;4.13;1.02;;;;;;;;;;5115053;27;20027;-75
2021/08/09 10:19:39;;;;;;;4.95;1.10;;;;;;;;;;5098895;27;20103;-75
2021/08/09 10:22:05;;;;;;;5.47;1.35;;;;;;;;;;5110105;27;20526;-74
2021/08/09 10:24:38;;;;;;;4.28;1.02;;;;;;;;;;5119458;27;20040;-74
2021/08/09 10:27:04;;;;;;;8.38;1.50;;;;;;;;;;5091220;27;20421;-75
2021/08/09 10:29:30;;;;;;;3.53;1.25;;;;;;;;;;5114774;27;20043;-74
2021/08/09 10:32:32;;;;;;;6.40;1.10;;;;;;;;;;5112709;27;20036;-74
2021/08/09 10:34:58;;;;;;;2.80;0.90;;;;;;;;;;5001198;28;20125;-74
2021/08/09 10:37:24;;;;;;;3.15;0.73;;;;;;;;;;5074490;27;20150;-74
2021/08/09 10:39:55;;;;;;;3.72;1.02;;;;;;;;;;5113213;27;20086;-74
2021/08/09 10:42:37;;;;;;;5.60;1.05;;;;;;;;;;5092423;28;20104;-74
2021/08/09 10:45:26;;;;;;;4.82;1.00;;;;;;;;;;5114881;27;20038;-74
2021/08/09 10:47:53;;;;;;;4.50;1.13;;;;;;;;;;5080758;27;20043;-74
2021/08/09 10:50:25;;;;;;;4.03;0.98;;;;;;;;;;5118736;27;20388;-74
2021/08/09 10:52:52;;;;;;;5.72;1.17;;;;;;;;;;5109403;27;20035;-74
2021/08/09 10:55:30;;;;;;;3.70;1.10;;;;;;;;;;5101271;28;20099;-73
2021/08/09 10:57:57;;;;;;;3.75;0.98;;;;;;;;;;5109363;27;20031;-73
2021/08/09 11:00:39;;;;;;;4.65;1.10;;;;;;;;;;5103977;27;20397;-73
2021/08/09 11:03:09;;;;;;;3.70;0.95;;;;;;;;;;5105842;27;20047;-74
2021/08/09 11:05:35;;;;;;;4.90;1.00;;;;;;;;;;5115431;27;20070;-74
2021/08/09 11:08:20;;;;;;;4.90;1.15;;;;;;;;;;5093478;27;20038;-73
2021/08/09 11:10:55;;;;;;;5.97;1.23;;;;;;;;;;5114267;27;20036;-73
2021/08/09 11:13:41;;;;;;;4.68;1.85;;;;;;;;;;5103484;27;20091;-73
2021/08/09 11:16:08;;;;;;;3.50;1.00;;;;;;;;;;5107385;27;20035;-73
2021/08/09 11:18:35;;;;;;;3.35;0.77;;;;;;;;;;5113851;27;20051;-74
2021/08/09 11:21:03;;;;;;;4.97;1.08;;;;;;;;;;5101407;27;20041;-74
2021/08/09 11:23:37;;;;;;;5.25;1.27;;;;;;;;;;5081833;27;20495;-73
2021/08/09 11:26:03;;;;;;;4.00;1.10;;;;;;;;;;5115055;27;20530;-73
2021/08/09 11:28:30;;;;;;;6.25;1.48;;;;;;;;;;5119986;27;20157;-73
2021/08/09 11:31:01;;;;;;;4.97;1.15;;;;;;;;;;5111285;27;20031;-73
2021/08/09 11:33:33;;;;;;;5.07;1.13;;;;;;;;;;5112627;27;20032;-73
2021/08/09 11:36:03;;;;;;;4.07;0.85;;;;;;;;;;5105510;27;20028;-73
2021/08/09 11:38:30;;;;;;;4.90;1.23;;;;;;;;;;5119416;27;20061;-73
2021/08/09 11:41:01;;;;;;;3.13;0.90;;;;;;;;;;5106908;27;20042;-73
2021/08/09 11:43:28;;;;;;;4.45;1.17;;;;;;;;;;5114109;27;20050;-73
2021/08/09 11:45:56;;;;;;;6.55;1.15;;;;;;;;;;5108540;27;20522;-73
2021/08/09 11:48:26;;;;;;;6.05;1.33;;;;;;;;;;5120735;27;20491;-73
2021/08/09 11:51:00;;;;;;;4.93;1.15;;;;;;;;;;5108139;27;20042;-73
2021/08/09 11:53:27;;;;;;;6.38;1.20;;;;;;;;;;5109980;27;20020;-73
2021/08/09 11:56:11;;;;;;;7.07;1.10;;;;;;;;;;5110855;27;20032;-73
2021/08/09 11:58:38;;;;;;;4.35;1.10;;;;;;;;;;5099453;27;20055;-73
2021/08/09 12:01:05;;;;;;;6.28;1.25;;;;;;;;;;5081719;27;20048;-73
2021/08/09 12:03:31;;;;;;;6.20;1.27;;;;;;;;;;5111098;27;20035;-73
2021/08/09 12:06:17;;;;;;;4.90;1.05;;;;;;;;;;5107851;27;20039;-73
2021/08/09 12:08:57;;;;;;;6.07;1.38;;;;;;;;;;5110714;27;20075;-73
2021/08/09 12:11:23;;;;;;;4.35;0.93;;;;;;;;;;5112472;27;20051;-73
2021/08/09 12:14:01;;;;;;;4.32;1.30;;;;;;;;;;5110966;27;20067;-73
2021/08/09 12:16:27;;;;;;;5.05;1.33;;;;;;;;;;5113381;27;20038;-73
2021/08/09 12:18:56;;;;;;;5.78;1.60;;;;;;;;;;5118773;27;20090;-73
2021/08/09 12:21:32;;;;;;;5.32;1.48;;;;;;;;;;5105686;27;20081;-74
2021/08/09 12:23:59;;;;;;;4.88;1.33;;;;;;;;;;5112544;27;20050;-72
2021/08/09 12:26:29;;;;;;;5.25;1.77;;;;;;;;;;5112414;27;20095;-73
2021/08/09 12:29:00;;;;;;;6.43;1.30;;;;;;;;;;5120078;27;20476;-73
2021/08/09 12:31:30;;;;;;;4.43;1.10;;;;;;;;;;5105120;27;20479;-73
2021/08/09 12:34:00;;;;;;;6.45;1.35;;;;;;;;;;5107276;27;20090;-73
2021/08/09 12:36:26;;;;;;;3.65;1.15;;;;;;;;;;5109404;27;20085;-74
2021/08/09 12:38:52;;;;;;;3.80;1.33;;;;;;;;;;5100814;27;20043;-73
2021/08/09 12:41:28;;;;;;;5.28;1.55;;;;;;;;;;5116851;27;20039;-73
2021/08/09 12:43:54;;;;;;;3.53;1.10;;;;;;;;;;5109117;27;20034;-73
2021/08/09 12:46:21;;;;;;;3.30;1.20;;;;;;;;;;5113753;27;20040;-73
2021/08/09 12:48:50;;;;;;;5.65;1.23;;;;;;;;;;5109771;27;20526;-73
2021/08/09 12:51:16;;;;;;;6.47;1.10;;;;;;;;;;5084030;28;20174;-73
2021/08/09 12:53:43;;;;;;;5.05;1.27;;;;;;;;;;5098644;27;20038;-73
2021/08/09 12:56:09;;;;;;;3.75;1.10;;;;;;;;;;5119085;27;20043;-73
2021/08/09 12:58:38;;;;;;;3.60;1.20;;;;;;;;;;5081103;27;20380;-73
2021/08/09 13:01:05;;;;;;;5.72;1.90;;;;;;;;;;5114968;27;20039;-72
2021/08/09 13:03:31;;;;;;;3.47;1.42;;;;;;;;;;5108659;27;20505;-73
2021/08/09 13:06:00;;;;;;;4.90;1.77;;;;;;;;;;5116505;27;20043;-72
2021/08/09 13:08:28;;;;;;;7.32;1.90;;;;;;;;;;5105684;27;20035;-72
2021/08/09 13:10:56;;;;;;;5.45;1.40;;;;;;;;;;5108362;27;20522;-72
2021/08/09 13:13:22;;;;;;;6.30;1.85;;;;;;;;;;5111709;27;20031;-66
2021/08/09 13:15:48;;;;;;;4.80;1.33;;;;;;;;;;5119390;27;20052;-72
2021/08/09 13:18:14;;;;;;;5.15;1.77;;;;;;;;;;5103314;27;20039;-73
2021/08/09 13:20:41;;;;;;;6.53;2.03;;;;;;;;;;5112100;27;20059;-72
2021/08/09 13:23:07;;;;;;;7.45;1.65;;;;;;;;;;5110627;27;20031;-72
2021/08/09 13:25:36;;;;;;;6.30;1.50;;;;;;;;;;5116201;27;20032;-72
2021/08/09 13:28:02;;;;;;;5.38;1.65;;;;;;;;;;5114917;27;20031;-72
2021/08/09 13:30:28;;;;;;;8.65;2.15;;;;;;;;;;5103714;27;20460;-72
2021/08/09 13:32:55;;;;;;;3.30;1.73;;;;;;;;;;5115580;27;20050;-72
2021/08/09 13:35:21;;;;;;;5.20;2.00;;;;;;;;;;5105440;27;20051;-72
2021/08/09 13:37:47;;;;;;;6.88;1.85;;;;;;;;;;5088326;28;20165;-72
2021/08/09 13:40:13;;;;;;;5.97;1.95;;;;;;;;;;5094813;28;20074;-72
2021/08/09 13:42:40;;;;;;;4.00;1.67;;;;;;;;;;5117773;28;20453;-72
2021/08/09 13:45:06;;;;;;;4.00;1.80;;;;;;;;;;5104720;28;20113;-73
2021/08/09 13:47:32;;;;;;;3.78;1.35;;;;;;;;;;5113804;28;20139;-72
2021/08/09 13:49:59;;;;;;;3.72;1.35;;;;;;;;;;5110934;28;20043;-72
2021/08/09 13:52:25;;;;;;;4.07;1.20;;;;;;;;;;5107445;28;20040;-72
2021/08/09 13:54:51;;;;;;;2.92;1.08;;;;;;;;;;5104174;28;20032;-73
2021/08/09 13:57:18;;;;;;;5.38;1.30;;;;;;;;;;5100233;28;20065;-72
2021/08/09 13:59:44;;;;;;;3.20;1.10;;;;;;;;;;5104430;28;20169;-72
2021/08/09 14:02:11;;;;;;;4.78;1.23;;;;;;;;;;5107936;28;20043;-72
2021/08/09 14:04:38;;;;;;;3.67;1.10;;;;;;;;;;5110803;28;20085;-72
2021/08/09 14:07:04;;;;;;;5.32;1.17;;;;;;;;;;5094730;28;20067;-72
2021/08/09 14:09:30;;;;;;;3.50;0.82;;;;;;;;;;5118776;28;20078;-72
2021/08/09 14:11:56;;;;;;;5.70;1.20;;;;;;;;;;5077378;28;20051;-72
2021/08/09 14:14:23;;;;;;;4.95;0.93;;;;;;;;;;5116147;28;20076;-72
2021/08/09 14:16:49;;;;;;;5.30;1.23;;;;;;;;;;5110456;28;20043;-72
2021/08/09 14:19:15;;;;;;;5.63;1.60;;;;;;;;;;5112078;28;20098;-71
2021/08/09 14:21:41;;;;;;;2.28;0.82;;;;;;;;;;5108145;28;20040;-71
2021/08/09 14:24:08;;;;;;;2.33;0.60;;;;;;;;;;5114446;28;20028;-71
2021/08/09 14:26:35;;;;;;;3.70;0.90;;;;;;;;;;5108194;28;20475;-71
2021/08/09 14:29:01;;;;;;;3.03;1.08;;;;;;;;;;5116674;28;20548;-71
2021/08/09 14:31:28;;;;;;;3.60;1.00;;;;;;;;;;5104818;28;20036;-71
2021/08/09 14:33:54;;;;;;;2.40;0.80;;;;;;;;;;5114028;28;20059;-71
2021/08/09 14:36:20;;;;;;;1.92;0.70;;;;;;;;;;5108551;28;20043;-71
2021/08/09 14:38:47;;;;;;;2.75;1.15;;;;;;;;;;5106140;28;20041;-71
2021/08/09 14:41:13;;;;;;;3.42;1.05;;;;;;;;;;5089739;27;20043;-71